x

Canaveral East - 120nm East Of Cape Canaveral (41010) Weather Station

6:20am - Sat 20th Sep 2014 All times are EDT. -4 hours from GMT.

  • Wind
    13mph, 16mph gusts
  • Sea Temp 84°f
  • Air Temp 79°f
  • Sea Pressure 1012mb
  • Canaveral East - 120nm East Of Cape Canaveral
  • Canaveral East - 120nm East Of Cape Canaveral

More Historic Weather Station data

Upgrade to MSW Pro to gain access to the past 30 days of data for over 8000 Wavebouys and Weather Stations around the globe.

Join Pro

Comparision Forecast

View Surf forecast
   
Sat 09/20 6:20am  -   -   -  13 16 mph 1012mb 84f 79f
5:50am 6.5ft 8s 6s 16 18 mph 1012mb 85f 79f
5:20am  -   -   -  16 18 mph 1012.1mb 84f 78f
4:50am 5ft 7s 6s 13 16 mph 1012.3mb 84f 78f
4:20am  -   -   -  13 18 mph 1012.5mb 84f 78f
3:50am 4.5ft 6s 5s 16 18 mph 1012.6mb 84f 77f
3:20am  -   -   -  20 22 mph 1012.7mb 84f 76f
2:50am 5ft 6s 5s 18 20 mph 1013.1mb 84f 75f
2:20am  -   -   -  20 25 mph 1013.3mb 84f 74f
1:50am 4.5ft 6s 5s 13 18 mph 1013.9mb 84f 75f
1:20am  -   -   -  18 22 mph 1013.8mb 85f 79f
12:50am 4.5ft 5s 5s 20 25 mph 1013.6mb 85f 80f
12:20am  -   -   -  18 22 mph 1013.9mb 85f 80f
Fri 09/19 11:50pm 4ft 5s 5s 16 18 mph 1013.9mb 85f 82f
11:20pm  -   -   -  16 20 mph 1014.3mb 85f 82f
10:50pm 3.5ft 6s 5s 18 20 mph 1014.7mb 85f 83f
10:20pm  -   -   -  13 16 mph 1014.7mb 85f 83f
9:50pm 3.5ft 5s 5s 11 16 mph 1014.5mb 85f 83f
9:20pm  -   -   -  13 16 mph 1014.4mb 85f 83f
8:50pm 3.5ft 9s 5s 13 18 mph 1013.9mb 85f 83f
8:20pm  -   -   -  11 16 mph 1014.2mb 85f 83f
7:50pm 3.5ft 10s 5s 13 16 mph 1014.3mb 85f 83f
7:20pm  -   -   -  11 16 mph 1014mb 85f 83f
6:50pm 3.5ft 10s 5s 13 16 mph 1013.6mb 85f 83f
6:20pm  -   -   -  13 18 mph 1013.8mb 85f 83f
5:50pm 3.5ft 10s 5s 13 16 mph 1013.9mb 85f 83f
5:20pm  -   -   -  13 16 mph 1013.9mb 85f 83f
4:50pm 3.5ft 10s 5s 13 18 mph 1014mb 85f 83f
4:20pm  -   -   -  13 18 mph 1013.8mb 85f 83f
3:50pm 3ft 10s 5s 13 16 mph 1013.8mb 85f 83f
3:20pm  -   -   -  16 18 mph 1014mb 85f 83f
2:50pm 3ft 11s 5s 13 16 mph 1014.2mb 85f 83f
2:20pm  -   -   -  13 16 mph 1014.5mb 85f 83f
1:50pm 3ft 11s 5s 11 16 mph 1015mb 85f 83f
1:20pm  -   -   -  13 20 mph 1015.1mb 85f 83f
12:50pm 3ft 11s 6s 11 13 mph 1015.4mb 85f 83f
12:20pm  -   -   -  11 13 mph 1015.5mb 85f 83f
11:50am 3ft 12s 6s 13 16 mph 1015.4mb 85f 83f
11:20am  -   -   -  13 16 mph 1015.5mb 85f 83f
10:50am 3ft 12s 6s 13 16 mph 1015.5mb 85f 83f
10:20am  -   -   -  16 20 mph 1015.4mb 85f 83f
9:50am 3ft 10s 6s 11 16 mph 1015.6mb 85f 82f
9:20am  -   -   -  13 16 mph 1015.5mb 85f 82f
8:50am 3ft 11s 7s 11 13 mph 1015.5mb 85f 83f
8:20am  -   -   -  11 16 mph 1015mb 85f 83f
7:50am 2.5ft 10s 6s 11 16 mph 1014.8mb 85f 83f
7:20am  -   -   -  11 13 mph 1014.4mb 85f 82f
6:50am 2.5ft 11s 7s 9 11 mph 1014.3mb 85f 82f
6:20am  -   -   -  9 11 mph 1013.8mb 85f 82f
5:50am 3ft 12s 8s 7 11 mph 1013.8mb 85f 82f
5:20am  -   -   -  7 9 mph 1013.4mb 85f 82f
4:50am 3.5ft 11s 8s 7 9 mph 1013.2mb 85f 82f
4:20am  -   -   -  7 9 mph 1013.1mb 85f 82f
3:50am 3.5ft 10s 8s 7 9 mph 1013.2mb 85f 82f
3:20am  -   -   -  7 9 mph 1013.3mb 85f 82f
2:50am 3.5ft 11s 7s 7 11 mph 1013.4mb 85f 82f
2:20am  -   -   -  7 9 mph 1013.6mb 85f 82f
1:50am 3ft 9s 7s 7 11 mph 1014mb 85f 82f
1:20am  -   -   -  9 11 mph 1014.1mb 85f 82f
12:50am 3.5ft 11s 7s 9
mph
1014.2mb 85f 82f
12:20am  -   -   -  9 13 mph 1014.1mb 85f 82f
Thu 09/18 11:50pm 3.5ft 11s 7s 9 11 mph 1014.4mb 85f 82f
11:20pm  -   -   -  9 11 mph 1014.3mb 85f 82f
10:50pm 3.5ft 11s 8s 9
mph
1014.4mb 85f 82f
10:20pm  -   -   -  11 13 mph 1014.1mb 85f 83f
9:50pm 3.5ft 12s 8s 9 13 mph 1014.2mb 85f 83f
9:20pm  -   -   -  11 13 mph 1014mb 85f 83f
8:50pm 3.5ft 11s 8s 11 13 mph 1013.8mb 85f 83f
8:20pm  -   -   -  9 11 mph 1013.4mb 85f 83f
7:50pm 3.5ft 11s 8s 9 11 mph 1013.1mb 85f 83f
7:20pm  -   -   -  9 11 mph 1013.1mb 85f 82f
6:50pm 4.5ft 12s 9s 9 11 mph 1012.8mb 85f 82f
6:20pm  -   -   -  9 11 mph 1012.6mb 85f 83f
5:50pm 4ft 12s 8s 9 11 mph 1012.6mb 85f 83f
5:20pm  -   -   -  9 11 mph 1012.5mb 85f 83f
4:50pm 4ft 12s 8s 9 11 mph 1012.4mb 85f 82f
4:20pm  -   -   -  7 9 mph 1012.5mb 86f 83f
3:50pm 4.5ft 13s 9s 7 11 mph 1012.5mb 86f 82f
3:20pm  -   -   -  7 9 mph 1012.7mb 85f 82f
2:50pm 4.5ft 13s 9s 9 11 mph 1012.9mb 85f 82f
2:20pm  -   -   -  9 11 mph 1013.1mb 85f 82f
1:50pm 4.5ft 13s 9s 9 11 mph 1013.3mb 85f 82f
1:20pm  -   -   -  9 11 mph 1013.5mb 85f 82f
12:50pm 4.5ft 13s 8s 9 13 mph 1013.7mb 85f 82f
12:20pm  -   -   -  7 9 mph 1013.8mb 85f 82f
11:50am 4.5ft 11s 9s 9 11 mph 1013.8mb 85f 82f
11:20am  -   -   -  9 11 mph 1013.7mb 85f 82f
10:50am 4.5ft 14s 9s 7 11 mph 1013.6mb 85f 82f
10:20am  -   -   -  7
mph
1013.6mb 85f 81f
9:50am 5ft 14s 9s 7 9 mph 1013.5mb 85f 82f
9:20am  -   -   -  7 9 mph 1013.2mb 85f 81f
8:50am 4.5ft 13s 9s 7 9 mph 1013.2mb 85f 81f
8:20am  -   -   -  9 11 mph 1013mb 85f 81f
7:50am 5ft 13s 9s 7 9 mph 1013mb 85f 81f
7:20am  -   -   -  9 11 mph 1012.2mb 85f 81f
6:50am 4.5ft 14s 9s 11 13 mph 1012mb 85f 81f
6:20am  -   -   -  9 11 mph 1012mb 85f 81f
5:50am 4.5ft 14s 9s 9 11 mph 1011.8mb 85f 81f
5:20am  -   -   -  9 11 mph 1011.6mb 85f 81f
4:50am 4.5ft 12s 9s 9 11 mph 1011.4mb 85f 80f
4:20am  -   -   -  7 11 mph 1011.1mb 85f 80f
3:50am 5ft 12s 9s 9 11 mph 1011.1mb 85f 80f
3:20am  -   -   -  7 9 mph 1011mb 85f 80f
2:50am 4.5ft 12s 9s 7 9 mph 1011.5mb 85f 80f
2:20am  -   -   -  7 9 mph 1011.6mb 85f 80f
1:50am 4.5ft 11s 8s 9 11 mph 1011.7mb 85f 81f
1:20am  -   -   -  7 9 mph 1012mb 85f 81f
12:50am 4.5ft 13s 8s 7 9 mph 1012.4mb 85f 81f
12:20am  -   -   -  7 9 mph 1012.4mb 85f 81f
Wed 09/17 11:50pm 4.5ft 12s 8s 9 11 mph 1012.3mb 85f 81f
11:20pm  -   -   -  11 13 mph 1012.5mb 85f 81f
10:50pm 5ft 13s 8s 9 11 mph 1012.5mb 85f 81f
10:20pm  -   -   -  13
mph
1012.4mb 85f 80f
9:50pm 5ft 13s 7s 9 13 mph 1012.3mb 85f 82f
9:20pm  -   -   -  7 11 mph 1012mb 85f 82f
8:50pm 5ft 14s 8s 9 11 mph 1011.7mb 85f 81f
8:20pm  -   -   -  11 13 mph 1011.6mb 85f 82f
7:50pm 4.5ft 13s 7s 9 13 mph 1011.3mb 85f 82f
7:20pm  -   -   -  7 9 mph 1011.2mb 85f 81f
6:50pm 4.5ft 14s 7s 7 9 mph 1011.3mb 85f 80f
6:20pm  -   -   -  9 11 mph 1011mb 85f 80f
5:50pm 4.5ft 14s 6s 9
mph
1010.7mb 85f 80f
5:20pm  -   -   -  9 11 mph 1010.8mb 85f 79f
4:50pm 5ft 14s 6s 11 13 mph 1010.7mb 85f 79f
4:20pm  -   -   -  13 18 mph 1010.8mb 85f 79f
3:50pm 5ft 14s 6s 13 16 mph 1010.8mb 85f 80f
3:20pm  -   -   -  13 16 mph 1011mb 85f 79f
2:50pm 4.5ft 14s 5s 16 20 mph 1011.3mb 85f 76f
2:20pm  -   -   -  18 22 mph 1011.5mb 85f 80f
1:50pm 5ft 5s 5s 16 20 mph 1011.9mb 85f 78f
1:20pm  -   -   -  7 13 mph 1012.5mb 85f 78f
12:50pm 5ft 15s 5s 20 31 mph 1012.9mb 85f 76f
12:20pm  -   -   -  16 20 mph 1013.2mb 85f 80f
11:50am 4.5ft 15s 5s 18 22 mph 1013.2mb 85f 79f
11:20am  -   -   -  16 22 mph 1013.2mb 85f 81f
10:50am 4ft 15s 5s 16 20 mph 1013.4mb 85f 81f
10:20am  -   -   -  16 20 mph 1013.1mb 85f 82f
9:50am 3.5ft 15s 4s 18 22 mph 1013.1mb 85f 82f
9:20am  -   -   -  9 16 mph 1013.3mb 85f 78f
8:50am 3.5ft 11s 5s 13 16 mph 1013.2mb 85f 82f
8:20am  -   -   -  16 20 mph 1012.7mb 85f 80f
7:50am 3ft 11s 5s 11 16 mph 1012.9mb 85f 78f
7:20am  -   -   -  18 22 mph 1012.9mb 85f 80f
6:50am 2.5ft 12s 5s 13 18 mph 1013.1mb 85f 80f
6:20am  -   -   -  13 16 mph 1012.9mb 85f 80f
5:50am 3ft 14s 5s 18 20 mph 1012.8mb 85f 79f
5:20am  -   -   -  20 25 mph 1012.5mb 85f 79f
4:50am 2.5ft 14s 5s 18 22 mph 1012.4mb 85f 79f
4:20am  -   -   -  16 20 mph 1013mb 85f 79f
3:50am 2.5ft 12s 5s 13 16 mph 1013.1mb 85f 79f
3:20am  -   -   -  11 13 mph 1013.4mb 85f 78f
2:50am 2.5ft 12s 4s 13 16 mph 1013.8mb 85f 77f
2:20am  -   -   -  13 18 mph 1014.1mb 85f 78f
1:50am 2.5ft 12s 5s 18 20 mph 1014.5mb 85f 78f
1:20am  -   -   -  16 18 mph 1014.7mb 85f 76f
12:50am 2.5ft 7s 6s 9 18 mph 1015.2mb 85f 82f
12:20am  -   -   -  9
mph
1015mb 85f 82f
Tue 09/16 11:50pm 2.5ft 13s 6s 7 9 mph 1015.4mb 85f 82f
11:20pm  -   -   -  7 9 mph 1015.3mb 85f 82f
10:50pm 2.5ft 8s 6s 7
mph
1015.7mb 85f 82f
10:20pm  -   -   -  4 7 mph 1015.8mb 85f 82f
9:50pm 2.5ft 7s 5s 2 4 mph 1015.7mb 85f 81f
9:20pm  -   -   -  4 7 mph 1015.6mb 85f 81f
8:50pm 2.5ft 7s 6s 2 4 mph 1015.5mb 85f 81f
8:20pm  -   -   -  2 4 mph 1015.2mb 85f 81f
7:50pm 2.5ft 7s 5s 2 4 mph 1015mb 85f 81f
7:20pm  -   -   -  4 7 mph 1015.1mb 85f 81f
6:50pm 2.5ft 7s 5s 4 7 mph 1015.1mb 85f 81f
6:20pm  -   -   -  4 7 mph 1015.2mb 85f 80f
5:50pm 2.5ft 8s 5s 2 4 mph 1015.1mb 85f 80f
5:20pm  -   -   -  7 9 mph 1015.1mb 85f 79f
4:50pm 2.5ft 8s 5s 9 11 mph 1015.3mb 85f 79f
4:20pm  -   -   -  9 13 mph 1015.9mb 85f 80f
3:50pm 2.5ft 13s 5s 7 11 mph 1015.9mb 85f 78f
3:20pm  -   -   -  20 22 mph 1015.9mb 85f 79f
2:50pm 2.5ft 8s 5s 16 18 mph 1016mb 85f 82f
2:20pm  -   -   -  11 18 mph 1016.4mb 85f 84f
1:50pm 2ft 8s 6s 9 11 mph 1016.8mb 85f 83f
1:20pm  -   -   -  9
mph
1017.2mb 85f 83f
12:50pm 2ft 9s 6s 9 11 mph 1017.6mb 85f 83f
12:20pm  -   -   -  7 9 mph 1018mb 85f 83f
11:50am 2ft 8s 6s 7
mph
1018.3mb 85f 83f
11:20am  -   -   -  9
mph
1018.5mb 85f 83f